createdAt,value
2022-11-22T00:00:48.115Z,33.80
2022-11-22T00:03:18.782Z,34.80
2022-11-22T00:05:46.605Z,25.70
2022-11-22T00:08:14.245Z,27.00
2022-11-22T00:10:41.928Z,26.10
2022-11-22T00:13:09.862Z,20.10
2022-11-22T00:15:37.527Z,18.10
2022-11-22T00:18:05.332Z,37.70
2022-11-22T00:20:33.775Z,22.80
2022-11-22T00:23:01.436Z,38.20
2022-11-22T00:25:29.083Z,38.00
2022-11-22T00:27:56.746Z,22.80
2022-11-22T00:30:24.393Z,19.90
2022-11-22T00:32:52.530Z,38.00
2022-11-22T00:35:20.174Z,35.80
2022-11-22T00:37:48.173Z,34.50
2022-11-22T00:40:16.569Z,30.30
2022-11-22T00:42:45.100Z,18.50
2022-11-22T00:45:12.946Z,17.30
2022-11-22T00:47:40.700Z,22.60
2022-11-22T00:50:10.000Z,32.40
2022-11-22T00:52:37.755Z,33.10
2022-11-22T00:55:05.940Z,15.50
2022-11-22T00:57:33.741Z,25.80
2022-11-22T01:00:01.497Z,25.00
2022-11-22T01:02:30.306Z,33.50
2022-11-22T01:04:57.940Z,33.20
2022-11-22T01:07:25.879Z,27.40
2022-11-22T01:09:53.583Z,31.70
2022-11-22T01:12:21.215Z,37.50
2022-11-22T01:14:49.060Z,29.80
2022-11-22T01:17:17.422Z,28.50
2022-11-22T01:19:45.747Z,25.30
2022-11-22T01:22:13.419Z,35.80
2022-11-22T01:24:41.128Z,28.30
2022-11-22T01:27:08.846Z,15.90
2022-11-22T01:29:36.628Z,31.80
2022-11-22T01:32:04.523Z,29.50
2022-11-22T01:34:32.444Z,30.50
2022-11-22T01:37:00.196Z,29.30
2022-11-22T01:39:28.458Z,36.60
2022-11-22T01:41:56.585Z,40.20
2022-11-22T01:44:28.425Z,25.20
2022-11-22T01:47:25.161Z,35.20
2022-11-22T01:50:01.998Z,32.40
2022-11-22T01:52:32.810Z,30.20
2022-11-22T01:55:06.104Z,27.10
2022-11-22T01:57:38.432Z,22.90
2022-11-22T02:00:12.997Z,30.20
2022-11-22T02:02:50.601Z,57.20
2022-11-22T02:05:21.624Z,52.70
2022-11-22T02:07:59.048Z,36.70
2022-11-22T02:10:29.968Z,30.60
2022-11-22T02:13:00.182Z,30.80
2022-11-22T02:15:27.930Z,26.30
2022-11-22T02:17:58.530Z,23.30
2022-11-22T02:20:26.249Z,22.70
2022-11-22T02:23:06.911Z,25.30
2022-11-22T02:25:37.400Z,39.70
2022-11-22T02:28:05.395Z,41.70
2022-11-22T02:30:33.067Z,55.50
2022-11-22T02:33:02.935Z,34.30
2022-11-22T02:35:31.141Z,38.60
2022-11-22T02:38:09.471Z,29.30
2022-11-22T02:40:51.253Z,31.60
2022-11-22T02:43:24.876Z,28.00
2022-11-22T02:45:52.571Z,27.40
2022-11-22T02:48:20.947Z,28.50
2022-11-22T02:50:49.067Z,38.90
2022-11-22T02:53:16.694Z,49.10
2022-11-22T02:55:44.393Z,42.00
2022-11-22T02:58:12.217Z,36.50
2022-11-22T03:00:40.431Z,35.40
2022-11-22T03:03:08.127Z,30.30
2022-11-22T03:05:35.772Z,32.60
2022-11-22T03:08:03.442Z,26.30
2022-11-22T03:10:31.214Z,34.50
2022-11-22T03:12:59.616Z,27.50
2022-11-22T03:15:27.443Z,23.40
2022-11-22T03:18:00.132Z,43.00
2022-11-22T03:20:28.601Z,54.60
2022-11-22T03:22:56.352Z,44.00
2022-11-22T03:25:23.989Z,33.40
2022-11-22T03:27:51.632Z,36.90
2022-11-22T03:30:19.423Z,36.40
2022-11-22T03:32:47.326Z,22.00
2022-11-22T03:35:14.998Z,30.30
2022-11-22T03:37:42.652Z,26.20
2022-11-22T03:40:10.685Z,25.20
2022-11-22T03:42:38.351Z,21.40
2022-11-22T03:45:06.795Z,52.10
2022-11-22T03:47:34.444Z,55.50
2022-11-22T03:50:02.109Z,43.10
2022-11-22T03:52:29.853Z,36.30
2022-11-22T03:54:57.572Z,32.50
2022-11-22T03:57:25.211Z,24.70
2022-11-22T03:59:52.938Z,20.10
2022-11-22T04:02:20.604Z,28.40
2022-11-22T04:04:48.312Z,34.20
2022-11-22T04:07:16.157Z,39.60
2022-11-22T04:09:43.808Z,32.00
2022-11-22T04:12:11.438Z,40.10
2022-11-22T04:14:57.919Z,39.40
2022-11-22T04:17:40.813Z,34.30
2022-11-22T04:20:32.933Z,33.70
2022-11-22T04:23:06.561Z,23.00
2022-11-22T04:25:36.431Z,28.70
2022-11-22T04:30:52.758Z,35.00
2022-11-22T04:33:21.268Z,26.60
2022-11-22T04:35:50.006Z,27.20
2022-11-22T04:38:18.757Z,41.30
2022-11-22T04:40:47.080Z,32.00
2022-11-22T04:43:45.502Z,34.70
2022-11-22T04:46:14.756Z,46.00
2022-11-22T04:48:43.045Z,40.20
2022-11-22T04:51:33.355Z,41.00
2022-11-22T04:54:01.014Z,43.80
2022-11-22T04:56:28.724Z,46.10
2022-11-22T04:58:56.491Z,31.00
2022-11-22T05:01:24.207Z,38.00
2022-11-22T05:03:51.979Z,37.30
2022-11-22T05:06:19.686Z,32.60
2022-11-22T05:08:47.875Z,36.90
2022-11-22T05:11:15.618Z,39.10
2022-11-22T05:13:43.648Z,41.20
2022-11-22T05:16:13.665Z,40.70
2022-11-22T05:18:42.159Z,28.10
2022-11-22T05:21:14.561Z,44.60
2022-11-22T05:23:57.120Z,40.00
2022-11-22T05:26:28.710Z,35.20
2022-11-22T05:28:58.162Z,37.80
2022-11-22T05:31:27.555Z,34.80
2022-11-22T05:33:57.120Z,28.30
2022-11-22T05:36:25.230Z,27.50
2022-11-22T05:38:53.892Z,38.70
2022-11-22T05:41:21.716Z,42.00
2022-11-22T05:43:49.523Z,44.30
2022-11-22T05:46:25.089Z,42.60
2022-11-22T05:48:55.111Z,44.70
2022-11-22T05:51:29.249Z,46.60
2022-11-22T05:54:02.323Z,41.40
2022-11-22T05:56:30.095Z,41.80
2022-11-22T05:58:57.783Z,44.40
2022-11-22T06:01:25.718Z,46.80
2022-11-22T06:03:54.184Z,40.70
2022-11-22T06:06:23.420Z,43.80
2022-11-22T06:08:51.628Z,37.20
2022-11-22T06:11:22.212Z,44.10
2022-11-22T06:13:55.256Z,37.60
2022-11-22T06:16:23.471Z,50.30
2022-11-22T06:18:51.364Z,47.10
2022-11-22T06:21:23.651Z,49.90
2022-11-22T06:23:55.497Z,41.10
2022-11-22T06:26:24.241Z,53.00
2022-11-22T06:28:52.515Z,47.60
2022-11-22T06:31:22.833Z,40.00
2022-11-22T06:33:52.641Z,42.20
2022-11-22T06:38:49.631Z,46.00
2022-11-22T06:41:20.342Z,36.40
2022-11-22T06:43:50.388Z,54.70
2022-11-22T06:46:20.155Z,45.90
2022-11-22T06:48:48.795Z,48.40
2022-11-22T06:51:18.917Z,38.40
2022-11-22T06:53:49.024Z,33.70
2022-11-22T06:56:23.246Z,23.70
2022-11-22T06:58:52.066Z,36.70
2022-11-22T07:01:22.618Z,28.00
2022-11-22T07:03:51.350Z,36.00
2022-11-22T07:06:19.656Z,43.50
2022-11-22T07:08:47.609Z,42.60
2022-11-22T07:11:18.351Z,36.20
2022-11-22T07:13:47.465Z,54.70
2022-11-22T07:16:17.626Z,45.00
2022-11-22T07:18:45.482Z,35.10
2022-11-22T07:21:16.525Z,45.90
2022-11-22T07:23:46.074Z,41.50
2022-11-22T07:26:15.759Z,44.50
2022-11-22T07:28:43.837Z,42.80
2022-11-22T07:31:13.751Z,35.50
2022-11-22T07:33:42.564Z,39.00
2022-11-22T07:36:13.229Z,45.60
2022-11-22T07:38:41.479Z,39.60
2022-11-22T07:41:09.972Z,48.40
2022-11-22T07:43:37.875Z,54.00
2022-11-22T07:46:08.265Z,41.90
2022-11-22T07:48:36.005Z,48.20
2022-11-22T07:51:07.664Z,39.80
2022-11-22T07:53:35.539Z,63.90
2022-11-22T07:56:04.664Z,55.10
2022-11-22T07:58:33.904Z,28.90
2022-11-22T08:01:07.214Z,40.30
2022-11-22T08:03:36.021Z,22.20
2022-11-22T08:06:06.377Z,35.40
2022-11-22T08:08:35.204Z,26.70
2022-11-22T08:11:03.870Z,44.60
2022-11-22T08:13:32.588Z,57.00
2022-11-22T08:16:08.693Z,58.90
2022-11-22T08:18:37.771Z,52.50
2022-11-22T08:21:11.778Z,31.50
2022-11-22T08:23:40.680Z,49.20
2022-11-22T08:26:10.143Z,39.60
2022-11-22T08:28:38.335Z,27.40
2022-11-22T08:31:09.140Z,31.80
2022-11-22T08:33:36.939Z,36.00
2022-11-22T08:36:05.531Z,43.20
2022-11-22T08:38:33.266Z,57.40
2022-11-22T08:41:00.967Z,59.80
2022-11-22T08:43:28.661Z,63.20
2022-11-22T08:45:58.387Z,52.10
2022-11-22T08:50:57.011Z,52.60
2022-11-22T08:53:25.608Z,38.90
2022-11-22T08:55:54.730Z,25.80
2022-11-22T08:58:22.881Z,38.60
2022-11-22T09:00:51.881Z,42.50
2022-11-22T09:03:19.604Z,53.60
2022-11-22T09:08:38.594Z,46.40
2022-11-22T09:11:12.035Z,46.60
2022-11-22T09:13:39.932Z,23.30
2022-11-22T09:16:19.246Z,39.00
2022-11-22T09:18:47.792Z,15.30
2022-11-22T09:21:21.041Z,38.00
2022-11-22T09:23:50.244Z,32.20
2022-11-22T09:26:20.416Z,34.90
2022-11-22T09:28:48.741Z,41.70
2022-11-22T09:31:19.521Z,26.10
2022-11-22T09:33:49.400Z,31.40
2022-11-22T09:36:22.499Z,41.30
2022-11-22T09:38:51.095Z,42.70
2022-11-22T09:41:37.512Z,42.40
2022-11-22T09:44:17.800Z,44.50
2022-11-22T09:46:55.124Z,31.60
2022-11-22T09:49:41.942Z,25.00
2022-11-22T09:52:15.290Z,28.90
2022-11-22T09:54:53.954Z,29.70
2022-11-22T09:57:32.536Z,22.90
2022-11-22T10:00:33.080Z,41.30
2022-11-22T10:03:30.414Z,38.80
2022-11-22T10:06:07.101Z,43.60
2022-11-22T10:08:52.152Z,42.90
2022-11-22T10:11:43.196Z,36.50
2022-11-22T10:14:36.228Z,24.30
2022-11-22T10:17:25.361Z,27.20
2022-11-22T10:20:13.513Z,25.30
2022-11-22T10:22:41.238Z,38.30
2022-11-22T10:25:27.567Z,27.40
2022-11-22T10:28:09.945Z,36.80
2022-11-22T10:30:42.614Z,34.00
2022-11-22T10:33:22.765Z,41.20
2022-11-22T10:36:07.099Z,20.80
2022-11-22T10:38:52.840Z,39.40
2022-11-22T10:41:32.334Z,33.80
2022-11-22T10:44:17.724Z,32.20
2022-11-22T10:47:10.943Z,25.30
2022-11-22T10:49:50.045Z,25.90
2022-11-22T10:52:55.241Z,20.60
2022-11-22T10:55:53.898Z,20.20
2022-11-22T10:58:29.281Z,21.90
2022-11-22T11:01:07.049Z,17.20
2022-11-22T11:03:39.704Z,17.90
2022-11-22T11:06:43.178Z,19.10
2022-11-22T11:12:19.687Z,20.50
2022-11-22T11:14:52.071Z,20.60
2022-11-22T11:17:32.452Z,16.30
2022-11-22T11:20:04.918Z,17.10
2022-11-22T11:23:12.362Z,21.80
2022-11-22T11:25:43.659Z,19.70
2022-11-22T11:28:20.326Z,21.50
2022-11-22T11:31:06.939Z,29.40
2022-11-22T11:33:38.352Z,15.70
2022-11-22T11:36:14.075Z,23.20
2022-11-22T11:38:44.569Z,13.80
2022-11-22T11:41:30.129Z,17.50
2022-11-22T11:44:03.782Z,29.50
2022-11-22T11:46:40.838Z,17.80
2022-11-22T11:49:11.495Z,21.40
2022-11-22T11:51:42.502Z,21.20
2022-11-22T11:54:19.980Z,20.60
2022-11-22T11:56:52.466Z,14.30
2022-11-22T11:59:43.057Z,17.90
2022-11-22T12:02:13.754Z,25.10
2022-11-22T12:04:58.831Z,21.80
2022-11-22T12:07:35.932Z,24.00
2022-11-22T12:10:42.432Z,19.50
2022-11-22T12:13:10.143Z,27.00
2022-11-22T12:15:53.739Z,23.20
2022-11-22T12:18:41.840Z,23.50
2022-11-22T12:21:35.269Z,21.10
2022-11-22T12:24:45.617Z,17.90
2022-11-22T12:27:14.224Z,17.30
2022-11-22T12:29:44.578Z,18.80
2022-11-22T12:32:39.698Z,25.00
2022-11-22T12:35:14.530Z,17.20
2022-11-22T12:37:50.066Z,24.50
2022-11-22T12:40:31.674Z,26.60
2022-11-22T12:43:03.662Z,25.20
2022-11-22T12:46:12.223Z,14.40
2022-11-22T12:48:55.006Z,13.80
2022-11-22T12:51:28.788Z,28.40
2022-11-22T12:54:02.012Z,12.70
2022-11-22T12:56:44.195Z,25.70
2022-11-22T12:59:11.901Z,17.50
2022-11-22T13:01:47.756Z,16.40
2022-11-22T13:07:15.666Z,24.60
2022-11-22T13:09:55.632Z,14.90
2022-11-22T13:12:31.007Z,31.80
2022-11-22T13:14:59.593Z,35.90
2022-11-22T13:17:34.176Z,23.00
2022-11-22T13:20:06.228Z,27.50
2022-11-22T13:22:52.071Z,24.70
2022-11-22T13:25:42.936Z,19.10
2022-11-22T13:28:25.736Z,30.50
2022-11-22T13:31:12.000Z,24.30
2022-11-22T13:33:53.646Z,29.20
2022-11-22T13:36:27.445Z,26.30
2022-11-22T13:39:03.319Z,21.80
2022-11-22T13:41:58.733Z,15.50
2022-11-22T13:44:33.142Z,17.90
2022-11-22T13:47:25.117Z,28.60
2022-11-22T13:49:54.123Z,25.50
2022-11-22T13:52:22.276Z,17.00
2022-11-22T13:54:49.973Z,8.50
2022-11-22T13:57:42.558Z,15.30
2022-11-22T14:00:13.936Z,25.30
2022-11-22T14:02:43.525Z,12.20
2022-11-22T14:05:19.772Z,18.10
2022-11-22T14:07:56.324Z,34.30
2022-11-22T14:10:27.159Z,14.60
2022-11-22T14:13:13.677Z,14.60
2022-11-22T14:15:55.048Z,31.00
2022-11-22T14:18:50.891Z,22.80
2022-11-22T14:21:40.284Z,20.60
2022-11-22T14:24:14.157Z,31.10
2022-11-22T14:26:41.885Z,30.50
2022-11-22T14:29:37.396Z,24.90
2022-11-22T14:32:16.175Z,13.70
2022-11-22T14:35:05.837Z,17.90
2022-11-22T14:37:43.892Z,20.80
2022-11-22T14:40:26.785Z,12.10
2022-11-22T14:42:57.528Z,30.60
2022-11-22T14:45:35.982Z,27.50
2022-11-22T14:48:20.358Z,24.50
2022-11-22T14:50:56.195Z,23.00
2022-11-22T14:53:33.515Z,15.20
2022-11-22T14:56:20.143Z,21.80
2022-11-22T14:59:25.967Z,26.60
2022-11-22T15:02:07.513Z,51.40
2022-11-22T15:09:18.219Z,36.70
2022-11-22T15:09:21.188Z,17.60
2022-11-22T15:11:16.040Z,20.40
2022-11-22T15:14:02.578Z,23.90
2022-11-22T15:59:43.364Z,56.60
2022-11-22T16:02:22.602Z,28.40
2022-11-22T16:06:05.694Z,24.30
2022-11-22T16:08:00.922Z,21.00
2022-11-22T16:10:33.200Z,36.80
2022-11-22T16:13:32.103Z,31.90
2022-11-22T16:16:03.962Z,19.70
2022-11-22T16:18:31.989Z,29.00
2022-11-22T16:21:04.256Z,41.60
2022-11-22T16:23:34.956Z,30.50
2022-11-22T16:26:18.992Z,34.20
2022-11-22T16:28:48.371Z,24.10
2022-11-22T16:31:29.929Z,28.20
2022-11-22T16:33:58.236Z,28.40
2022-11-22T16:36:29.759Z,41.30
2022-11-22T16:38:57.771Z,22.80
2022-11-22T16:41:27.997Z,27.90
2022-11-22T16:44:10.377Z,37.20
2022-11-22T16:46:39.978Z,16.90
2022-11-22T16:49:19.170Z,26.50
2022-11-22T16:51:48.555Z,18.80
2022-11-22T16:54:19.491Z,20.40
2022-11-22T16:56:47.658Z,29.90
2022-11-22T16:59:15.852Z,38.30
2022-11-22T17:01:44.234Z,30.80
2022-11-22T17:04:23.794Z,23.40
2022-11-22T17:06:51.948Z,11.70
2022-11-22T17:09:19.868Z,30.30
2022-11-22T17:11:47.830Z,16.10
2022-11-22T17:14:17.037Z,26.20
2022-11-22T17:16:46.431Z,27.90
2022-11-22T17:19:37.348Z,20.90
2022-11-22T17:22:02.324Z,17.40
2022-11-22T17:24:30.365Z,23.00
2022-11-22T17:26:58.723Z,25.50
2022-11-22T17:32:15.203Z,19.90
2022-11-22T17:34:42.912Z,23.00
2022-11-22T17:37:12.192Z,18.20
2022-11-22T17:39:40.633Z,25.70
2022-11-22T17:42:08.774Z,25.10
2022-11-22T17:44:36.485Z,16.50
2022-11-22T17:47:04.326Z,24.10
2022-11-22T17:49:32.325Z,26.90
2022-11-22T17:52:00.645Z,31.90
2022-11-22T17:54:28.371Z,18.90
2022-11-22T17:56:56.293Z,39.30
2022-11-22T17:59:23.985Z,21.20
2022-11-22T18:01:51.754Z,33.90
2022-11-22T18:04:19.409Z,30.00
2022-11-22T18:06:47.183Z,21.20
2022-11-22T18:09:14.964Z,37.40
2022-11-22T18:11:43.542Z,33.80
2022-11-22T18:14:11.470Z,33.60
2022-11-22T18:16:39.344Z,22.40
2022-11-22T18:19:12.825Z,39.80
2022-11-22T18:21:40.505Z,31.10
2022-11-22T18:24:08.536Z,45.30
2022-11-22T18:26:40.634Z,29.30
2022-11-22T18:31:58.219Z,39.00
2022-11-22T18:34:27.611Z,19.20
2022-11-22T18:37:00.904Z,30.80
2022-11-22T18:39:36.740Z,25.60
2022-11-22T18:42:06.979Z,21.30
2022-11-22T18:44:34.728Z,41.90
2022-11-22T18:47:03.072Z,32.40
2022-11-22T18:49:31.249Z,39.70
2022-11-22T18:51:59.502Z,51.50
2022-11-22T18:54:27.189Z,33.10
2022-11-22T18:56:57.333Z,28.40
2022-11-22T18:59:25.134Z,27.20
2022-11-22T19:01:52.900Z,42.10
2022-11-22T19:04:20.634Z,49.00
2022-11-22T19:06:48.285Z,49.00
2022-11-22T19:09:16.056Z,47.90
2022-11-22T19:11:43.795Z,48.50
2022-11-22T19:14:11.551Z,44.00
2022-11-22T19:16:39.426Z,39.00
2022-11-22T19:19:10.547Z,24.20
2022-11-22T19:21:38.217Z,44.70
2022-11-22T19:24:06.262Z,22.90
2022-11-22T19:26:34.196Z,51.40
2022-11-22T19:29:02.719Z,32.40
2022-11-22T19:31:31.685Z,63.00
2022-11-22T19:34:00.201Z,57.40
2022-11-22T19:36:36.089Z,26.70
2022-11-22T19:39:05.351Z,51.40
2022-11-22T19:41:33.812Z,40.50
2022-11-22T19:44:02.363Z,42.10
2022-11-22T19:46:30.431Z,62.60
2022-11-22T19:49:01.388Z,61.70
2022-11-22T19:51:31.105Z,61.90
2022-11-22T19:54:21.783Z,62.90
2022-11-22T19:56:50.477Z,52.10
2022-11-22T19:59:18.386Z,33.40
2022-11-22T20:01:46.402Z,39.60
2022-11-22T20:04:15.704Z,39.30
2022-11-22T20:06:48.584Z,56.00
2022-11-22T20:09:17.896Z,50.40
2022-11-22T20:11:47.024Z,40.50
2022-11-22T20:14:15.871Z,38.30
2022-11-22T20:16:44.066Z,53.30
2022-11-22T20:19:14.870Z,48.90
2022-11-22T20:21:42.888Z,50.80
2022-11-22T20:24:11.623Z,52.90
2022-11-22T20:26:39.349Z,40.60
2022-11-22T20:29:11.930Z,31.10
2022-11-22T20:31:40.934Z,43.60
2022-11-22T20:34:10.073Z,39.40
2022-11-22T20:36:37.905Z,55.30
2022-11-22T20:39:10.885Z,45.30
2022-11-22T20:41:40.078Z,41.40
2022-11-22T20:44:12.506Z,48.30
2022-11-22T20:46:41.206Z,48.10
2022-11-22T20:49:09.396Z,39.60
2022-11-22T20:51:39.802Z,37.20
2022-11-22T20:54:08.592Z,39.00
2022-11-22T20:56:37.544Z,60.30
2022-11-22T20:59:05.559Z,58.50
2022-11-22T21:01:33.857Z,62.60
2022-11-22T21:04:01.770Z,70.40
2022-11-22T21:06:29.479Z,68.50
2022-11-22T21:08:57.452Z,75.60
2022-11-22T21:11:36.693Z,75.30
2022-11-22T21:14:04.558Z,68.70
2022-11-22T21:16:32.508Z,64.20
2022-11-22T21:19:02.046Z,30.30
2022-11-22T21:21:31.014Z,53.30
2022-11-22T21:24:00.971Z,53.20
2022-11-22T21:26:29.858Z,70.00
2022-11-22T21:28:59.454Z,77.10
2022-11-22T21:31:28.048Z,69.00
2022-11-22T21:33:55.947Z,74.60
2022-11-22T21:36:23.734Z,67.30
2022-11-22T21:38:51.696Z,64.50
2022-11-22T21:41:39.215Z,61.00
2022-11-22T21:44:08.960Z,31.40
2022-11-22T21:46:37.164Z,47.90
2022-11-22T21:49:05.285Z,50.50
2022-11-22T21:51:32.940Z,45.60
2022-11-22T21:54:01.959Z,53.50
2022-11-22T21:56:29.844Z,57.60
2022-11-22T21:58:57.760Z,49.80
2022-11-22T22:01:25.994Z,52.20
2022-11-22T22:03:54.204Z,46.20
2022-11-22T22:06:22.317Z,54.60
2022-11-22T22:08:49.981Z,55.90
2022-11-22T22:11:17.952Z,47.50
2022-11-22T22:13:45.836Z,46.10
2022-11-22T22:16:19.228Z,33.50
2022-11-22T22:18:47.459Z,59.30
2022-11-22T22:21:16.560Z,32.70
2022-11-22T22:23:45.320Z,26.40
2022-11-22T22:26:15.578Z,32.50
2022-11-22T22:28:45.079Z,29.80
2022-11-22T22:31:21.785Z,42.40
2022-11-22T22:33:55.528Z,53.70
2022-11-22T22:36:25.637Z,52.40
2022-11-22T22:38:54.333Z,46.50
2022-11-22T22:41:22.233Z,35.80
2022-11-22T22:43:50.175Z,36.40
2022-11-22T22:46:20.426Z,26.00
2022-11-22T22:48:49.364Z,37.50
2022-11-22T22:51:19.777Z,39.40
2022-11-22T22:53:48.263Z,48.90
2022-11-22T22:56:18.365Z,30.50
2022-11-22T22:58:46.369Z,31.00
2022-11-22T23:01:17.509Z,34.20
2022-11-22T23:03:54.142Z,38.80
2022-11-22T23:06:22.417Z,29.20
2022-11-22T23:08:51.941Z,27.90
2022-11-22T23:11:41.235Z,25.60
2022-11-22T23:14:09.165Z,31.30
2022-11-22T23:16:38.833Z,33.40
2022-11-22T23:19:08.044Z,49.10
2022-11-22T23:21:36.319Z,22.90
2022-11-22T23:24:05.104Z,48.30
2022-11-22T23:26:32.867Z,23.90
2022-11-22T23:29:01.028Z,30.00
2022-11-22T23:31:28.709Z,34.50
2022-11-22T23:33:56.546Z,18.60
2022-11-22T23:36:24.249Z,13.80
2022-11-22T23:38:52.021Z,29.20
2022-11-22T23:41:22.622Z,37.90
2022-11-22T23:43:55.138Z,34.50
2022-11-22T23:46:26.407Z,36.80
2022-11-22T23:48:57.198Z,27.30
2022-11-22T23:51:26.475Z,29.20
2022-11-22T23:53:55.762Z,44.30
2022-11-22T23:56:23.772Z,38.30
2022-11-22T23:58:52.793Z,28.10
